sensor_id;sensor_type;location;lat;lon;timestamp;P1;durP1;ratioP1;P2;durP2;ratioP2
36137;SDS011;67787;50.074;21.904;2023-02-28T00:01:28;43.60;;;19.70;;
36137;SDS011;67787;50.074;21.904;2023-02-28T00:03:57;38.80;;;19.10;;
36137;SDS011;67787;50.074;21.904;2023-02-28T00:06:25;42.70;;;20.40;;
36137;SDS011;67787;50.074;21.904;2023-02-28T00:08:54;43.80;;;21.00;;
36137;SDS011;67787;50.074;21.904;2023-02-28T00:11:22;42.50;;;19.30;;
36137;SDS011;67787;50.074;21.904;2023-02-28T00:13:51;42.50;;;20.10;;
36137;SDS011;67787;50.074;21.904;2023-02-28T00:16:20;40.30;;;18.50;;
36137;SDS011;67787;50.074;21.904;2023-02-28T00:18:49;41.50;;;19.60;;
36137;SDS011;67787;50.074;21.904;2023-02-28T00:21:18;39.70;;;19.80;;
36137;SDS011;67787;50.074;21.904;2023-02-28T00:23:47;37.70;;;18.20;;
36137;SDS011;67787;50.074;21.904;2023-02-28T00:26:16;36.10;;;17.50;;
36137;SDS011;67787;50.074;21.904;2023-02-28T00:28:46;38.80;;;19.20;;
36137;SDS011;67787;50.074;21.904;2023-02-28T00:31:15;42.20;;;19.50;;
36137;SDS011;67787;50.074;21.904;2023-02-28T00:33:43;43.60;;;20.70;;
36137;SDS011;67787;50.074;21.904;2023-02-28T00:36:11;41.60;;;20.10;;
36137;SDS011;67787;50.074;21.904;2023-02-28T00:38:39;36.70;;;18.60;;
36137;SDS011;67787;50.074;21.904;2023-02-28T00:41:08;42.40;;;21.50;;
36137;SDS011;67787;50.074;21.904;2023-02-28T00:43:37;42.30;;;21.00;;
36137;SDS011;67787;50.074;21.904;2023-02-28T00:46:06;38.90;;;19.50;;
36137;SDS011;67787;50.074;21.904;2023-02-28T00:48:35;42.20;;;20.70;;
36137;SDS011;67787;50.074;21.904;2023-02-28T00:51:03;42.30;;;19.10;;
36137;SDS011;67787;50.074;21.904;2023-02-28T00:53:32;41.00;;;20.50;;
36137;SDS011;67787;50.074;21.904;2023-02-28T00:56:00;41.10;;;20.50;;
36137;SDS011;67787;50.074;21.904;2023-02-28T00:58:29;45.40;;;20.90;;
36137;SDS011;67787;50.074;21.904;2023-02-28T01:00:57;40.90;;;19.10;;
36137;SDS011;67787;50.074;21.904;2023-02-28T01:03:25;44.10;;;21.20;;
36137;SDS011;67787;50.074;21.904;2023-02-28T01:05:54;44.90;;;20.80;;
36137;SDS011;67787;50.074;21.904;2023-02-28T01:08:22;47.30;;;21.60;;
36137;SDS011;67787;50.074;21.904;2023-02-28T01:10:50;46.60;;;21.90;;
36137;SDS011;67787;50.074;21.904;2023-02-28T01:13:19;47.10;;;22.00;;
36137;SDS011;67787;50.074;21.904;2023-02-28T01:15:51;49.30;;;22.40;;
36137;SDS011;67787;50.074;21.904;2023-02-28T01:18:23;43.70;;;21.00;;
36137;SDS011;67787;50.074;21.904;2023-02-28T01:20:52;43.80;;;22.20;;
36137;SDS011;67787;50.074;21.904;2023-02-28T01:23:21;46.60;;;23.20;;
36137;SDS011;67787;50.074;21.904;2023-02-28T01:25:51;46.40;;;21.50;;
36137;SDS011;67787;50.074;21.904;2023-02-28T01:28:19;45.60;;;22.70;;
36137;SDS011;67787;50.074;21.904;2023-02-28T01:30:48;44.10;;;22.10;;
36137;SDS011;67787;50.074;21.904;2023-02-28T01:33:18;41.20;;;20.40;;
36137;SDS011;67787;50.074;21.904;2023-02-28T01:35:46;45.80;;;22.50;;
36137;SDS011;67787;50.074;21.904;2023-02-28T01:38:14;48.70;;;25.20;;
36137;SDS011;67787;50.074;21.904;2023-02-28T01:40:49;47.80;;;23.60;;
36137;SDS011;67787;50.074;21.904;2023-02-28T01:45:54;45.10;;;22.00;;
36137;SDS011;67787;50.074;21.904;2023-02-28T01:48:25;47.90;;;23.80;;
36137;SDS011;67787;50.074;21.904;2023-02-28T01:50:59;47.10;;;25.80;;
36137;SDS011;67787;50.074;21.904;2023-02-28T01:53:34;43.20;;;21.60;;
36137;SDS011;67787;50.074;21.904;2023-02-28T01:56:05;47.50;;;22.10;;
36137;SDS011;67787;50.074;21.904;2023-02-28T01:58:37;48.30;;;24.10;;
36137;SDS011;67787;50.074;21.904;2023-02-28T02:01:05;60.10;;;25.90;;
36137;SDS011;67787;50.074;21.904;2023-02-28T02:03:33;58.80;;;27.10;;
36137;SDS011;67787;50.074;21.904;2023-02-28T02:06:03;53.70;;;24.20;;
36137;SDS011;67787;50.074;21.904;2023-02-28T02:08:31;45.10;;;22.20;;
36137;SDS011;67787;50.074;21.904;2023-02-28T02:11:00;45.60;;;22.70;;
36137;SDS011;67787;50.074;21.904;2023-02-28T02:18:54;46.00;;;23.10;;
36137;SDS011;67787;50.074;21.904;2023-02-28T02:26:52;66.60;;;31.70;;
36137;SDS011;67787;50.074;21.904;2023-02-28T02:35:38;77.60;;;38.00;;
36137;SDS011;67787;50.074;21.904;2023-02-28T02:38:30;73.30;;;36.30;;
36137;SDS011;67787;50.074;21.904;2023-02-28T02:44:37;77.20;;;35.50;;
36137;SDS011;67787;50.074;21.904;2023-02-28T02:49:20;67.40;;;32.80;;
36137;SDS011;67787;50.074;21.904;2023-02-28T02:51:52;77.40;;;37.00;;
36137;SDS011;67787;50.074;21.904;2023-02-28T02:54:24;88.50;;;42.20;;
36137;SDS011;67787;50.074;21.904;2023-02-28T02:57:03;84.70;;;40.40;;
36137;SDS011;67787;50.074;21.904;2023-02-28T02:59:36;103.60;;;43.60;;
36137;SDS011;67787;50.074;21.904;2023-02-28T03:02:08;96.60;;;44.30;;
36137;SDS011;67787;50.074;21.904;2023-02-28T03:04:43;74.20;;;37.30;;
36137;SDS011;67787;50.074;21.904;2023-02-28T03:07:16;68.50;;;34.50;;
36137;SDS011;67787;50.074;21.904;2023-02-28T03:09:54;62.20;;;32.40;;
36137;SDS011;67787;50.074;21.904;2023-02-28T03:12:23;60.60;;;28.60;;
36137;SDS011;67787;50.074;21.904;2023-02-28T03:15:12;58.40;;;27.60;;
36137;SDS011;67787;50.074;21.904;2023-02-28T03:18:02;54.60;;;27.70;;
36137;SDS011;67787;50.074;21.904;2023-02-28T03:21:14;60.40;;;28.80;;
36137;SDS011;67787;50.074;21.904;2023-02-28T03:23:48;56.30;;;27.50;;
36137;SDS011;67787;50.074;21.904;2023-02-28T03:26:24;55.20;;;27.00;;
36137;SDS011;67787;50.074;21.904;2023-02-28T03:29:02;58.00;;;29.10;;
36137;SDS011;67787;50.074;21.904;2023-02-28T03:31:55;60.50;;;30.30;;
36137;SDS011;67787;50.074;21.904;2023-02-28T03:34:51;53.30;;;25.30;;
36137;SDS011;67787;50.074;21.904;2023-02-28T03:37:28;51.80;;;24.60;;
36137;SDS011;67787;50.074;21.904;2023-02-28T03:40:00;55.20;;;25.10;;
36137;SDS011;67787;50.074;21.904;2023-02-28T03:42:36;51.20;;;24.20;;
36137;SDS011;67787;50.074;21.904;2023-02-28T03:45:08;50.50;;;23.40;;
36137;SDS011;67787;50.074;21.904;2023-02-28T03:47:43;50.70;;;23.10;;
36137;SDS011;67787;50.074;21.904;2023-02-28T03:50:20;46.20;;;22.80;;
36137;SDS011;67787;50.074;21.904;2023-02-28T03:52:58;49.10;;;23.40;;
36137;SDS011;67787;50.074;21.904;2023-02-28T03:55:48;55.20;;;24.50;;
36137;SDS011;67787;50.074;21.904;2023-02-28T04:01:30;44.30;;;21.40;;
36137;SDS011;67787;50.074;21.904;2023-02-28T04:04:03;45.60;;;22.90;;
36137;SDS011;67787;50.074;21.904;2023-02-28T04:06:32;47.40;;;22.60;;
36137;SDS011;67787;50.074;21.904;2023-02-28T04:09:01;46.50;;;24.30;;
36137;SDS011;67787;50.074;21.904;2023-02-28T04:11:45;42.90;;;21.50;;
36137;SDS011;67787;50.074;21.904;2023-02-28T04:14:17;46.10;;;21.20;;
36137;SDS011;67787;50.074;21.904;2023-02-28T04:16:45;40.00;;;19.30;;
36137;SDS011;67787;50.074;21.904;2023-02-28T04:19:13;38.70;;;18.90;;
36137;SDS011;67787;50.074;21.904;2023-02-28T04:24:16;33.50;;;16.20;;
36137;SDS011;67787;50.074;21.904;2023-02-28T04:26:50;39.00;;;18.30;;
36137;SDS011;67787;50.074;21.904;2023-02-28T04:29:21;36.00;;;17.40;;
36137;SDS011;67787;50.074;21.904;2023-02-28T04:31:51;35.50;;;19.20;;
36137;SDS011;67787;50.074;21.904;2023-02-28T04:34:26;40.00;;;19.00;;
36137;SDS011;67787;50.074;21.904;2023-02-28T04:36:55;42.40;;;19.80;;
36137;SDS011;67787;50.074;21.904;2023-02-28T04:42:07;40.50;;;17.90;;
36137;SDS011;67787;50.074;21.904;2023-02-28T04:44:35;39.50;;;18.70;;
36137;SDS011;67787;50.074;21.904;2023-02-28T04:47:03;39.10;;;19.00;;
36137;SDS011;67787;50.074;21.904;2023-02-28T04:49:31;38.60;;;18.10;;
36137;SDS011;67787;50.074;21.904;2023-02-28T04:51:59;39.60;;;17.90;;
36137;SDS011;67787;50.074;21.904;2023-02-28T04:54:27;36.20;;;17.40;;
36137;SDS011;67787;50.074;21.904;2023-02-28T04:56:55;39.30;;;18.70;;
36137;SDS011;67787;50.074;21.904;2023-02-28T04:59:24;43.00;;;21.00;;
36137;SDS011;67787;50.074;21.904;2023-02-28T05:01:52;42.40;;;20.10;;
36137;SDS011;67787;50.074;21.904;2023-02-28T05:04:20;44.30;;;22.10;;
36137;SDS011;67787;50.074;21.904;2023-02-28T05:06:48;43.80;;;21.10;;
36137;SDS011;67787;50.074;21.904;2023-02-28T05:09:17;48.10;;;22.10;;
36137;SDS011;67787;50.074;21.904;2023-02-28T05:11:44;44.60;;;21.80;;
36137;SDS011;67787;50.074;21.904;2023-02-28T05:14:13;45.30;;;22.80;;
36137;SDS011;67787;50.074;21.904;2023-02-28T05:16:41;43.80;;;22.10;;
36137;SDS011;67787;50.074;21.904;2023-02-28T05:19:10;54.60;;;24.70;;
36137;SDS011;67787;50.074;21.904;2023-02-28T05:21:39;51.80;;;26.60;;
36137;SDS011;67787;50.074;21.904;2023-02-28T05:24:10;53.80;;;28.10;;
36137;SDS011;67787;50.074;21.904;2023-02-28T05:26:40;57.20;;;29.80;;
36137;SDS011;67787;50.074;21.904;2023-02-28T05:29:09;51.50;;;26.50;;
36137;SDS011;67787;50.074;21.904;2023-02-28T05:31:37;53.40;;;26.40;;
36137;SDS011;67787;50.074;21.904;2023-02-28T05:34:06;51.80;;;28.40;;
36137;SDS011;67787;50.074;21.904;2023-02-28T05:36:34;58.10;;;30.10;;
36137;SDS011;67787;50.074;21.904;2023-02-28T05:39:07;60.20;;;34.80;;
36137;SDS011;67787;50.074;21.904;2023-02-28T05:41:41;59.00;;;33.70;;
36137;SDS011;67787;50.074;21.904;2023-02-28T05:44:09;66.60;;;35.80;;
36137;SDS011;67787;50.074;21.904;2023-02-28T05:46:38;73.40;;;38.20;;
36137;SDS011;67787;50.074;21.904;2023-02-28T05:49:06;78.80;;;38.60;;
36137;SDS011;67787;50.074;21.904;2023-02-28T05:51:34;72.40;;;37.90;;
36137;SDS011;67787;50.074;21.904;2023-02-28T05:54:04;64.70;;;32.40;;
36137;SDS011;67787;50.074;21.904;2023-02-28T05:56:32;61.30;;;32.20;;
36137;SDS011;67787;50.074;21.904;2023-02-28T05:59:02;57.70;;;30.70;;
36137;SDS011;67787;50.074;21.904;2023-02-28T06:01:34;70.20;;;36.30;;
36137;SDS011;67787;50.074;21.904;2023-02-28T06:04:04;65.00;;;34.40;;
36137;SDS011;67787;50.074;21.904;2023-02-28T06:06:38;70.60;;;36.80;;
36137;SDS011;67787;50.074;21.904;2023-02-28T06:09:06;72.80;;;35.70;;
36137;SDS011;67787;50.074;21.904;2023-02-28T06:11:34;80.20;;;40.20;;
36137;SDS011;67787;50.074;21.904;2023-02-28T06:14:02;69.30;;;34.60;;
36137;SDS011;67787;50.074;21.904;2023-02-28T06:16:32;77.90;;;36.30;;
36137;SDS011;67787;50.074;21.904;2023-02-28T06:19:02;63.60;;;30.80;;
36137;SDS011;67787;50.074;21.904;2023-02-28T06:21:31;59.90;;;33.40;;
36137;SDS011;67787;50.074;21.904;2023-02-28T06:23:59;59.80;;;30.50;;
36137;SDS011;67787;50.074;21.904;2023-02-28T06:26:27;45.30;;;23.50;;
36137;SDS011;67787;50.074;21.904;2023-02-28T06:28:55;47.70;;;27.20;;
36137;SDS011;67787;50.074;21.904;2023-02-28T06:31:24;40.20;;;19.10;;
36137;SDS011;67787;50.074;21.904;2023-02-28T06:33:53;41.90;;;21.60;;
36137;SDS011;67787;50.074;21.904;2023-02-28T06:36:21;44.80;;;21.50;;
36137;SDS011;67787;50.074;21.904;2023-02-28T06:38:49;41.90;;;20.40;;
36137;SDS011;67787;50.074;21.904;2023-02-28T06:41:25;44.60;;;23.70;;
36137;SDS011;67787;50.074;21.904;2023-02-28T06:43:55;38.40;;;19.10;;
36137;SDS011;67787;50.074;21.904;2023-02-28T06:46:23;47.10;;;24.70;;
36137;SDS011;67787;50.074;21.904;2023-02-28T06:48:51;47.30;;;24.20;;
36137;SDS011;67787;50.074;21.904;2023-02-28T06:51:20;46.20;;;24.90;;
36137;SDS011;67787;50.074;21.904;2023-02-28T06:53:50;46.30;;;21.40;;
36137;SDS011;67787;50.074;21.904;2023-02-28T06:56:18;48.70;;;22.70;;
36137;SDS011;67787;50.074;21.904;2023-02-28T06:58:48;49.50;;;25.10;;
36137;SDS011;67787;50.074;21.904;2023-02-28T07:01:18;45.30;;;24.30;;
36137;SDS011;67787;50.074;21.904;2023-02-28T07:03:47;45.10;;;24.50;;
36137;SDS011;67787;50.074;21.904;2023-02-28T07:06:20;45.30;;;24.30;;
36137;SDS011;67787;50.074;21.904;2023-02-28T07:08:50;51.10;;;27.40;;
36137;SDS011;67787;50.074;21.904;2023-02-28T07:11:20;52.30;;;25.30;;
36137;SDS011;67787;50.074;21.904;2023-02-28T07:13:50;59.00;;;29.60;;
36137;SDS011;67787;50.074;21.904;2023-02-28T07:16:18;55.60;;;29.50;;
36137;SDS011;67787;50.074;21.904;2023-02-28T07:18:46;54.10;;;29.60;;
36137;SDS011;67787;50.074;21.904;2023-02-28T07:21:15;48.60;;;25.60;;
36137;SDS011;67787;50.074;21.904;2023-02-28T07:23:43;47.90;;;25.40;;
36137;SDS011;67787;50.074;21.904;2023-02-28T07:26:12;47.10;;;23.40;;
36137;SDS011;67787;50.074;21.904;2023-02-28T07:28:43;49.90;;;23.50;;
36137;SDS011;67787;50.074;21.904;2023-02-28T07:31:13;43.90;;;22.60;;
36137;SDS011;67787;50.074;21.904;2023-02-28T07:33:41;48.90;;;24.30;;
36137;SDS011;67787;50.074;21.904;2023-02-28T07:36:12;42.20;;;21.90;;
36137;SDS011;67787;50.074;21.904;2023-02-28T07:38:43;50.20;;;26.20;;
36137;SDS011;67787;50.074;21.904;2023-02-28T07:41:19;45.60;;;23.80;;
36137;SDS011;67787;50.074;21.904;2023-02-28T07:43:48;41.50;;;19.60;;
36137;SDS011;67787;50.074;21.904;2023-02-28T07:46:17;38.90;;;18.10;;
36137;SDS011;67787;50.074;21.904;2023-02-28T07:48:45;37.00;;;16.20;;
36137;SDS011;67787;50.074;21.904;2023-02-28T07:51:13;36.30;;;16.90;;
36137;SDS011;67787;50.074;21.904;2023-02-28T07:53:41;27.60;;;12.90;;
36137;SDS011;67787;50.074;21.904;2023-02-28T07:56:09;27.80;;;12.30;;
36137;SDS011;67787;50.074;21.904;2023-02-28T07:58:38;27.00;;;11.70;;
36137;SDS011;67787;50.074;21.904;2023-02-28T08:01:08;27.80;;;12.40;;
36137;SDS011;67787;50.074;21.904;2023-02-28T08:03:38;29.80;;;12.90;;
36137;SDS011;67787;50.074;21.904;2023-02-28T08:06:07;25.30;;;11.40;;
36137;SDS011;67787;50.074;21.904;2023-02-28T08:08:42;24.90;;;10.70;;
36137;SDS011;67787;50.074;21.904;2023-02-28T08:11:11;24.90;;;12.30;;
36137;SDS011;67787;50.074;21.904;2023-02-28T08:13:39;25.40;;;10.80;;
36137;SDS011;67787;50.074;21.904;2023-02-28T08:16:07;27.00;;;12.40;;
36137;SDS011;67787;50.074;21.904;2023-02-28T08:18:35;23.60;;;10.30;;
36137;SDS011;67787;50.074;21.904;2023-02-28T08:21:07;26.70;;;12.20;;
36137;SDS011;67787;50.074;21.904;2023-02-28T08:23:38;22.40;;;10.60;;
36137;SDS011;67787;50.074;21.904;2023-02-28T08:26:06;22.00;;;10.30;;
36137;SDS011;67787;50.074;21.904;2023-02-28T08:28:34;21.50;;;9.10;;
36137;SDS011;67787;50.074;21.904;2023-02-28T08:31:07;24.20;;;10.20;;
36137;SDS011;67787;50.074;21.904;2023-02-28T08:36:07;21.50;;;8.50;;
36137;SDS011;67787;50.074;21.904;2023-02-28T08:38:36;22.10;;;9.20;;
36137;SDS011;67787;50.074;21.904;2023-02-28T08:41:06;21.70;;;9.50;;
36137;SDS011;67787;50.074;21.904;2023-02-28T08:43:36;22.60;;;9.90;;
36137;SDS011;67787;50.074;21.904;2023-02-28T08:46:05;22.60;;;9.70;;
36137;SDS011;67787;50.074;21.904;2023-02-28T08:48:41;22.40;;;9.40;;
36137;SDS011;67787;50.074;21.904;2023-02-28T08:51:29;27.10;;;13.20;;
36137;SDS011;67787;50.074;21.904;2023-02-28T08:53:59;27.50;;;13.60;;
36137;SDS011;67787;50.074;21.904;2023-02-28T08:56:28;22.10;;;10.00;;
36137;SDS011;67787;50.074;21.904;2023-02-28T08:58:56;23.30;;;9.40;;
36137;SDS011;67787;50.074;21.904;2023-02-28T09:01:26;24.30;;;9.50;;
36137;SDS011;67787;50.074;21.904;2023-02-28T09:03:56;24.10;;;9.80;;
36137;SDS011;67787;50.074;21.904;2023-02-28T09:06:26;22.50;;;8.70;;
36137;SDS011;67787;50.074;21.904;2023-02-28T09:08:58;20.30;;;8.10;;
36137;SDS011;67787;50.074;21.904;2023-02-28T09:11:28;21.00;;;8.90;;
36137;SDS011;67787;50.074;21.904;2023-02-28T09:13:57;25.10;;;9.70;;
36137;SDS011;67787;50.074;21.904;2023-02-28T09:16:27;21.30;;;9.30;;
36137;SDS011;67787;50.074;21.904;2023-02-28T09:18:55;22.30;;;10.10;;
36137;SDS011;67787;50.074;21.904;2023-02-28T09:21:23;20.20;;;8.90;;
36137;SDS011;67787;50.074;21.904;2023-02-28T09:23:52;21.60;;;9.20;;
36137;SDS011;67787;50.074;21.904;2023-02-28T09:26:21;23.80;;;9.20;;
36137;SDS011;67787;50.074;21.904;2023-02-28T09:29:05;21.30;;;8.90;;
36137;SDS011;67787;50.074;21.904;2023-02-28T09:31:34;20.30;;;7.80;;
36137;SDS011;67787;50.074;21.904;2023-02-28T09:34:03;21.80;;;8.70;;
36137;SDS011;67787;50.074;21.904;2023-02-28T09:36:32;19.50;;;8.00;;
36137;SDS011;67787;50.074;21.904;2023-02-28T09:39:12;21.30;;;8.90;;
36137;SDS011;67787;50.074;21.904;2023-02-28T09:41:44;19.70;;;8.00;;
36137;SDS011;67787;50.074;21.904;2023-02-28T09:44:20;19.60;;;8.30;;
36137;SDS011;67787;50.074;21.904;2023-02-28T09:47:01;18.70;;;7.90;;
36137;SDS011;67787;50.074;21.904;2023-02-28T09:49:40;17.90;;;7.10;;
36137;SDS011;67787;50.074;21.904;2023-02-28T09:52:18;22.60;;;7.80;;
36137;SDS011;67787;50.074;21.904;2023-02-28T09:54:49;23.30;;;9.60;;
36137;SDS011;67787;50.074;21.904;2023-02-28T09:57:19;20.80;;;8.90;;
36137;SDS011;67787;50.074;21.904;2023-02-28T10:00:19;19.60;;;8.00;;
36137;SDS011;67787;50.074;21.904;2023-02-28T10:08:28;20.80;;;9.00;;
36137;SDS011;67787;50.074;21.904;2023-02-28T10:11:01;22.30;;;9.80;;
36137;SDS011;67787;50.074;21.904;2023-02-28T10:16:55;16.30;;;7.50;;
36137;SDS011;67787;50.074;21.904;2023-02-28T10:19:34;21.30;;;8.50;;
36137;SDS011;67787;50.074;21.904;2023-02-28T10:25:35;22.20;;;8.00;;
36137;SDS011;67787;50.074;21.904;2023-02-28T10:28:08;19.90;;;9.30;;
36137;SDS011;67787;50.074;21.904;2023-02-28T10:30:40;18.90;;;8.00;;
36137;SDS011;67787;50.074;21.904;2023-02-28T10:33:41;23.20;;;9.60;;
36137;SDS011;67787;50.074;21.904;2023-02-28T10:36:08;23.20;;;9.00;;
36137;SDS011;67787;50.074;21.904;2023-02-28T10:38:42;19.10;;;7.80;;
36137;SDS011;67787;50.074;21.904;2023-02-28T10:41:18;23.10;;;9.20;;
36137;SDS011;67787;50.074;21.904;2023-02-28T10:44:13;22.20;;;9.60;;
36137;SDS011;67787;50.074;21.904;2023-02-28T10:46:45;23.00;;;10.00;;
36137;SDS011;67787;50.074;21.904;2023-02-28T10:49:23;21.00;;;10.00;;
36137;SDS011;67787;50.074;21.904;2023-02-28T10:51:55;24.10;;;10.10;;
36137;SDS011;67787;50.074;21.904;2023-02-28T10:59:50;23.00;;;10.00;;
36137;SDS011;67787;50.074;21.904;2023-02-28T11:04:57;20.30;;;7.70;;
36137;SDS011;67787;50.074;21.904;2023-02-28T11:07:25;24.30;;;8.50;;
36137;SDS011;67787;50.074;21.904;2023-02-28T11:10:16;19.90;;;8.60;;
36137;SDS011;67787;50.074;21.904;2023-02-28T11:12:49;19.70;;;8.60;;
36137;SDS011;67787;50.074;21.904;2023-02-28T11:17:54;21.20;;;8.80;;
36137;SDS011;67787;50.074;21.904;2023-02-28T11:20:26;22.10;;;9.00;;
36137;SDS011;67787;50.074;21.904;2023-02-28T11:22:57;20.70;;;9.40;;
36137;SDS011;67787;50.074;21.904;2023-02-28T11:25:30;20.00;;;8.80;;
36137;SDS011;67787;50.074;21.904;2023-02-28T11:28:00;18.40;;;7.80;;
36137;SDS011;67787;50.074;21.904;2023-02-28T11:30:37;20.70;;;8.40;;
36137;SDS011;67787;50.074;21.904;2023-02-28T11:36:19;21.90;;;9.20;;
36137;SDS011;67787;50.074;21.904;2023-02-28T11:38:48;21.70;;;9.50;;
36137;SDS011;67787;50.074;21.904;2023-02-28T11:44:08;21.00;;;9.60;;
36137;SDS011;67787;50.074;21.904;2023-02-28T11:51:58;21.20;;;9.40;;
36137;SDS011;67787;50.074;21.904;2023-02-28T11:54:35;21.50;;;9.50;;
36137;SDS011;67787;50.074;21.904;2023-02-28T12:19:46;20.10;;;8.80;;
36137;SDS011;67787;50.074;21.904;2023-02-28T12:22:30;21.40;;;8.70;;
36137;SDS011;67787;50.074;21.904;2023-02-28T12:27:36;22.20;;;9.40;;
36137;SDS011;67787;50.074;21.904;2023-02-28T12:30:15;15.60;;;6.90;;
36137;SDS011;67787;50.074;21.904;2023-02-28T12:32:51;21.20;;;8.70;;
36137;SDS011;67787;50.074;21.904;2023-02-28T12:35:31;20.10;;;9.20;;
36137;SDS011;67787;50.074;21.904;2023-02-28T12:38:37;21.90;;;8.90;;
36137;SDS011;67787;50.074;21.904;2023-02-28T12:44:12;25.60;;;10.30;;
36137;SDS011;67787;50.074;21.904;2023-02-28T12:46:47;24.10;;;10.00;;
36137;SDS011;67787;50.074;21.904;2023-02-28T12:52:06;18.10;;;7.80;;
36137;SDS011;67787;50.074;21.904;2023-02-28T12:57:27;24.60;;;10.10;;
36137;SDS011;67787;50.074;21.904;2023-02-28T13:00:14;21.30;;;9.00;;
36137;SDS011;67787;50.074;21.904;2023-02-28T13:08:07;23.40;;;10.40;;
36137;SDS011;67787;50.074;21.904;2023-02-28T13:10:56;21.80;;;10.20;;
36137;SDS011;67787;50.074;21.904;2023-02-28T13:13:26;23.40;;;10.20;;
36137;SDS011;67787;50.074;21.904;2023-02-28T13:16:03;22.60;;;9.90;;
36137;SDS011;67787;50.074;21.904;2023-02-28T13:18:34;23.20;;;11.20;;
36137;SDS011;67787;50.074;21.904;2023-02-28T13:21:24;21.70;;;9.00;;
36137;SDS011;67787;50.074;21.904;2023-02-28T13:24:03;21.10;;;9.60;;
36137;SDS011;67787;50.074;21.904;2023-02-28T13:34:38;22.20;;;9.40;;
36137;SDS011;67787;50.074;21.904;2023-02-28T13:39:49;21.50;;;8.80;;
36137;SDS011;67787;50.074;21.904;2023-02-28T13:42:34;22.10;;;9.10;;
36137;SDS011;67787;50.074;21.904;2023-02-28T14:04:13;21.80;;;8.80;;
36137;SDS011;67787;50.074;21.904;2023-02-28T14:07:00;21.80;;;9.60;;
36137;SDS011;67787;50.074;21.904;2023-02-28T14:16:10;17.30;;;7.40;;
36137;SDS011;67787;50.074;21.904;2023-02-28T14:21:19;22.70;;;9.50;;
36137;SDS011;67787;50.074;21.904;2023-02-28T14:23:55;20.80;;;9.70;;
36137;SDS011;67787;50.074;21.904;2023-02-28T14:34:54;18.50;;;7.40;;
36137;SDS011;67787;50.074;21.904;2023-02-28T14:37:30;18.40;;;7.50;;
36137;SDS011;67787;50.074;21.904;2023-02-28T14:40:04;22.20;;;9.50;;
36137;SDS011;67787;50.074;21.904;2023-02-28T14:42:46;20.40;;;9.00;;
36137;SDS011;67787;50.074;21.904;2023-02-28T14:45:21;21.70;;;9.30;;
36137;SDS011;67787;50.074;21.904;2023-02-28T14:47:51;25.20;;;10.70;;
36137;SDS011;67787;50.074;21.904;2023-02-28T14:50:22;23.80;;;12.30;;
36137;SDS011;67787;50.074;21.904;2023-02-28T14:52:52;21.60;;;9.90;;
36137;SDS011;67787;50.074;21.904;2023-02-28T14:55:26;21.60;;;8.50;;
36137;SDS011;67787;50.074;21.904;2023-02-28T14:58:01;21.80;;;8.30;;
36137;SDS011;67787;50.074;21.904;2023-02-28T15:00:35;20.20;;;8.30;;
36137;SDS011;67787;50.074;21.904;2023-02-28T15:03:18;23.60;;;14.30;;
36137;SDS011;67787;50.074;21.904;2023-02-28T15:06:14;21.90;;;10.00;;
36137;SDS011;67787;50.074;21.904;2023-02-28T15:09:01;18.70;;;8.20;;
36137;SDS011;67787;50.074;21.904;2023-02-28T15:11:36;19.50;;;8.40;;
36137;SDS011;67787;50.074;21.904;2023-02-28T15:14:04;19.70;;;8.80;;
36137;SDS011;67787;50.074;21.904;2023-02-28T15:16:35;22.00;;;10.10;;
36137;SDS011;67787;50.074;21.904;2023-02-28T15:19:11;23.20;;;10.40;;
36137;SDS011;67787;50.074;21.904;2023-02-28T15:21:48;24.20;;;10.50;;
36137;SDS011;67787;50.074;21.904;2023-02-28T15:24:43;23.90;;;10.30;;
36137;SDS011;67787;50.074;21.904;2023-02-28T15:27:21;21.70;;;9.10;;
36137;SDS011;67787;50.074;21.904;2023-02-28T15:29:56;24.00;;;10.20;;
36137;SDS011;67787;50.074;21.904;2023-02-28T15:32:28;25.10;;;10.40;;
36137;SDS011;67787;50.074;21.904;2023-02-28T15:34:59;21.90;;;9.80;;
36137;SDS011;67787;50.074;21.904;2023-02-28T15:37:57;21.00;;;8.60;;
36137;SDS011;67787;50.074;21.904;2023-02-28T15:40:30;26.70;;;10.40;;
36137;SDS011;67787;50.074;21.904;2023-02-28T15:43:14;25.80;;;11.10;;
36137;SDS011;67787;50.074;21.904;2023-02-28T15:45:53;25.70;;;13.00;;
36137;SDS011;67787;50.074;21.904;2023-02-28T15:48:33;31.20;;;12.60;;
36137;SDS011;67787;50.074;21.904;2023-02-28T15:51:08;29.20;;;13.70;;
36137;SDS011;67787;50.074;21.904;2023-02-28T15:56:22;44.30;;;20.90;;
36137;SDS011;67787;50.074;21.904;2023-02-28T15:58:56;34.00;;;16.90;;
36137;SDS011;67787;50.074;21.904;2023-02-28T16:01:30;39.50;;;18.70;;
36137;SDS011;67787;50.074;21.904;2023-02-28T16:04:12;30.80;;;15.20;;
36137;SDS011;67787;50.074;21.904;2023-02-28T16:06:46;36.10;;;17.30;;
36137;SDS011;67787;50.074;21.904;2023-02-28T16:09:27;40.30;;;20.00;;
36137;SDS011;67787;50.074;21.904;2023-02-28T16:12:00;47.10;;;24.70;;
36137;SDS011;67787;50.074;21.904;2023-02-28T16:14:31;40.80;;;21.10;;
36137;SDS011;67787;50.074;21.904;2023-02-28T16:17:06;36.20;;;19.40;;
36137;SDS011;67787;50.074;21.904;2023-02-28T16:19:51;39.40;;;19.00;;
36137;SDS011;67787;50.074;21.904;2023-02-28T16:22:37;36.70;;;17.90;;
36137;SDS011;67787;50.074;21.904;2023-02-28T16:25:08;36.30;;;17.60;;
36137;SDS011;67787;50.074;21.904;2023-02-28T16:27:39;38.40;;;18.70;;
36137;SDS011;67787;50.074;21.904;2023-02-28T16:30:14;38.80;;;18.70;;
36137;SDS011;67787;50.074;21.904;2023-02-28T16:32:47;40.20;;;20.00;;
36137;SDS011;67787;50.074;21.904;2023-02-28T16:35:17;45.20;;;21.60;;
36137;SDS011;67787;50.074;21.904;2023-02-28T16:37:47;55.30;;;27.80;;
36137;SDS011;67787;50.074;21.904;2023-02-28T16:40:16;61.20;;;33.40;;
36137;SDS011;67787;50.074;21.904;2023-02-28T16:42:50;63.10;;;31.20;;
36137;SDS011;67787;50.074;21.904;2023-02-28T16:45:22;70.40;;;32.60;;
36137;SDS011;67787;50.074;21.904;2023-02-28T16:47:53;66.00;;;34.30;;
36137;SDS011;67787;50.074;21.904;2023-02-28T16:50:22;72.10;;;34.20;;
36137;SDS011;67787;50.074;21.904;2023-02-28T16:52:55;70.10;;;34.20;;
36137;SDS011;67787;50.074;21.904;2023-02-28T16:55:23;80.40;;;37.50;;
36137;SDS011;67787;50.074;21.904;2023-02-28T16:57:54;78.80;;;36.70;;
36137;SDS011;67787;50.074;21.904;2023-02-28T17:00:25;85.50;;;42.10;;
36137;SDS011;67787;50.074;21.904;2023-02-28T17:02:55;90.50;;;44.50;;
36137;SDS011;67787;50.074;21.904;2023-02-28T17:05:23;102.70;;;45.40;;
36137;SDS011;67787;50.074;21.904;2023-02-28T17:07:51;127.40;;;58.80;;
36137;SDS011;67787;50.074;21.904;2023-02-28T17:10:23;133.90;;;63.80;;
36137;SDS011;67787;50.074;21.904;2023-02-28T17:12:52;146.70;;;67.40;;
36137;SDS011;67787;50.074;21.904;2023-02-28T17:15:30;137.40;;;65.00;;
36137;SDS011;67787;50.074;21.904;2023-02-28T17:17:58;121.50;;;57.60;;
36137;SDS011;67787;50.074;21.904;2023-02-28T17:20:26;118.30;;;55.40;;
36137;SDS011;67787;50.074;21.904;2023-02-28T17:22:54;113.80;;;53.30;;